createdAt,value
2022-10-01T00:02:04.947Z,100.00
2022-10-01T00:04:31.602Z,100.00
2022-10-01T00:07:00.379Z,100.00
2022-10-01T00:09:27.329Z,100.00
2022-10-01T00:11:53.986Z,100.00
2022-10-01T00:14:20.759Z,100.00
2022-10-01T00:16:47.474Z,100.00
2022-10-01T00:19:15.034Z,100.00
2022-10-01T00:21:41.912Z,100.00
2022-10-01T00:24:11.975Z,100.00
2022-10-01T00:26:38.984Z,100.00
2022-10-01T00:29:10.085Z,100.00
2022-10-01T00:31:37.063Z,100.00
2022-10-01T00:34:04.492Z,100.00
2022-10-01T00:36:32.347Z,100.00
2022-10-01T00:39:00.790Z,100.00
2022-10-01T00:41:33.080Z,100.00
2022-10-01T00:44:02.546Z,100.00
2022-10-01T00:46:41.819Z,100.00
2022-10-01T00:49:21.283Z,100.00
2022-10-01T00:51:51.345Z,100.00
2022-10-01T00:54:27.040Z,100.00
2022-10-01T00:56:55.564Z,100.00
2022-10-01T00:59:22.243Z,100.00
2022-10-01T01:01:49.202Z,100.00
2022-10-01T01:04:18.732Z,100.00
2022-10-01T01:06:53.803Z,100.00
2022-10-01T01:09:21.416Z,100.00
2022-10-01T01:12:06.681Z,100.00
2022-10-01T01:14:40.423Z,100.00
2022-10-01T01:17:13.021Z,100.00
2022-10-01T01:20:18.319Z,100.00
2022-10-01T01:22:48.398Z,100.00
2022-10-01T01:25:20.197Z,100.00
2022-10-01T01:28:05.128Z,100.00
2022-10-01T01:30:33.088Z,100.00
2022-10-01T01:33:09.488Z,100.00
2022-10-01T01:35:41.099Z,100.00
2022-10-01T01:38:11.458Z,100.00
2022-10-01T01:40:39.455Z,100.00
2022-10-01T01:43:10.205Z,100.00
2022-10-01T01:45:40.007Z,100.00
2022-10-01T01:48:09.158Z,100.00
2022-10-01T01:50:43.291Z,100.00
2022-10-01T01:53:10.123Z,100.00
2022-10-01T01:55:37.290Z,100.00
2022-10-01T01:58:04.010Z,100.00
2022-10-01T02:00:30.648Z,100.00
2022-10-01T02:02:58.124Z,100.00
2022-10-01T02:05:27.422Z,100.00
2022-10-01T02:08:02.016Z,100.00
2022-10-01T02:10:40.102Z,100.00
2022-10-01T02:13:22.202Z,100.00
2022-10-01T02:15:59.803Z,100.00
2022-10-01T02:18:39.738Z,100.00
2022-10-01T02:21:33.647Z,100.00
2022-10-01T02:24:26.658Z,100.00
2022-10-01T02:26:54.597Z,100.00
2022-10-01T02:29:22.258Z,100.00
2022-10-01T02:31:51.035Z,100.00
2022-10-01T02:34:23.855Z,100.00
2022-10-01T02:36:51.083Z,100.00
2022-10-01T02:39:22.072Z,100.00
2022-10-01T02:41:50.449Z,100.00
2022-10-01T02:44:21.226Z,100.00
2022-10-01T02:47:05.295Z,100.00
2022-10-01T02:49:32.163Z,100.00
2022-10-01T02:52:21.459Z,100.00
2022-10-01T02:55:00.496Z,100.00
2022-10-01T02:57:30.531Z,100.00
2022-10-01T02:59:59.956Z,100.00
2022-10-01T03:02:28.350Z,100.00
2022-10-01T03:04:57.243Z,100.00
2022-10-01T03:07:28.048Z,100.00
2022-10-01T03:09:54.778Z,100.00
2022-10-01T03:12:21.828Z,100.00
2022-10-01T03:14:48.493Z,100.00
2022-10-01T03:17:15.888Z,100.00
2022-10-01T03:19:42.970Z,100.00
2022-10-01T03:22:13.161Z,100.00
2022-10-01T03:24:39.760Z,100.00
2022-10-01T03:27:06.684Z,100.00
2022-10-01T03:29:33.426Z,100.00
2022-10-01T03:32:00.137Z,100.00
2022-10-01T03:34:26.811Z,100.00
2022-10-01T03:36:53.454Z,100.00
2022-10-01T03:39:20.078Z,100.00
2022-10-01T03:41:50.048Z,100.00
2022-10-01T03:44:16.655Z,100.00
2022-10-01T03:46:43.854Z,100.00
2022-10-01T03:49:13.707Z,100.00
2022-10-01T03:51:42.643Z,100.00
2022-10-01T03:54:09.667Z,100.00
2022-10-01T03:56:36.483Z,100.00
2022-10-01T03:59:03.402Z,100.00
2022-10-01T04:01:30.972Z,100.00
2022-10-01T04:03:57.879Z,100.00
2022-10-01T04:06:24.601Z,100.00
2022-10-01T04:08:51.353Z,100.00
2022-10-01T04:11:18.103Z,100.00
2022-10-01T04:13:45.128Z,100.00
2022-10-01T04:16:11.829Z,100.00
2022-10-01T04:18:38.715Z,100.00
2022-10-01T04:21:05.668Z,100.00
2022-10-01T04:23:32.410Z,100.00
2022-10-01T04:26:01.035Z,100.00
2022-10-01T04:28:28.365Z,100.00
2022-10-01T04:31:15.025Z,100.00
2022-10-01T04:33:41.819Z,100.00
2022-10-01T04:36:08.431Z,100.00
2022-10-01T04:38:35.112Z,100.00
2022-10-01T04:41:01.825Z,100.00
2022-10-01T04:43:28.441Z,100.00
2022-10-01T04:45:54.997Z,100.00
2022-10-01T04:48:21.622Z,100.00
2022-10-01T04:50:48.177Z,100.00
2022-10-01T04:53:14.779Z,100.00
2022-10-01T04:55:42.492Z,100.00
2022-10-01T04:58:09.274Z,100.00
2022-10-01T05:00:36.245Z,100.00
2022-10-01T05:03:02.884Z,100.00
2022-10-01T05:05:32.932Z,100.00
2022-10-01T05:07:59.631Z,100.00
2022-10-01T05:10:26.303Z,100.00
2022-10-01T05:12:52.996Z,100.00
2022-10-01T05:15:19.744Z,100.00
2022-10-01T05:17:46.690Z,100.00
2022-10-01T05:20:21.507Z,100.00
2022-10-01T05:22:49.463Z,100.00
2022-10-01T05:25:16.833Z,100.00
2022-10-01T05:27:43.695Z,100.00
2022-10-01T05:30:12.143Z,100.00
2022-10-01T05:32:38.921Z,100.00
2022-10-01T05:35:07.266Z,100.00
2022-10-01T05:37:34.429Z,100.00
2022-10-01T05:40:01.713Z,100.00
2022-10-01T05:42:28.334Z,100.00
2022-10-01T05:44:56.168Z,100.00
2022-10-01T05:47:23.232Z,100.00
2022-10-01T05:49:49.894Z,100.00
2022-10-01T05:52:16.945Z,100.00
2022-10-01T05:54:43.632Z,100.00
2022-10-01T05:57:10.644Z,100.00
2022-10-01T05:59:37.399Z,100.00
2022-10-01T06:02:04.350Z,100.00
2022-10-01T06:04:31.482Z,100.00
2022-10-01T06:06:58.268Z,100.00
2022-10-01T06:09:25.270Z,100.00
2022-10-01T06:11:51.879Z,100.00
2022-10-01T06:14:18.957Z,100.00
2022-10-01T06:16:46.968Z,100.00
2022-10-01T06:19:13.717Z,100.00
2022-10-01T06:21:40.368Z,100.00
2022-10-01T06:24:07.109Z,100.00
2022-10-01T06:26:33.837Z,100.00
2022-10-01T06:29:00.462Z,100.00
2022-10-01T06:31:27.626Z,100.00
2022-10-01T06:33:54.294Z,100.00
2022-10-01T06:36:20.878Z,100.00
2022-10-01T06:38:50.584Z,100.00
2022-10-01T06:41:17.251Z,100.00
2022-10-01T06:43:43.951Z,100.00
2022-10-01T06:46:11.177Z,100.00
2022-10-01T06:48:37.938Z,100.00
2022-10-01T06:51:04.711Z,100.00
2022-10-01T06:53:31.910Z,100.00
2022-10-01T06:56:06.966Z,100.00
2022-10-01T06:58:33.847Z,100.00
2022-10-01T07:01:02.175Z,100.00
2022-10-01T07:03:29.200Z,100.00
2022-10-01T07:06:03.963Z,100.00
2022-10-01T07:08:30.673Z,100.00
2022-10-01T07:11:02.771Z,100.00
2022-10-01T07:13:29.920Z,100.00
2022-10-01T07:15:56.732Z,100.00
2022-10-01T07:18:23.643Z,100.00
2022-10-01T07:20:50.285Z,100.00
2022-10-01T07:23:17.311Z,100.00
2022-10-01T07:25:44.256Z,100.00
2022-10-01T07:28:16.843Z,100.00
2022-10-01T07:30:56.713Z,100.00
2022-10-01T07:33:23.485Z,100.00
2022-10-01T07:35:50.230Z,100.00
2022-10-01T07:38:16.923Z,100.00
2022-10-01T07:40:43.607Z,100.00
2022-10-01T07:43:10.268Z,100.00
2022-10-01T07:45:37.076Z,100.00
2022-10-01T07:48:04.267Z,100.00
2022-10-01T07:50:30.979Z,100.00
2022-10-01T07:52:58.597Z,100.00
2022-10-01T07:55:27.008Z,100.00
2022-10-01T07:57:55.160Z,100.00
2022-10-01T08:00:22.857Z,100.00
2022-10-01T08:02:50.779Z,100.00
2022-10-01T08:05:22.509Z,100.00
2022-10-01T08:07:50.160Z,100.00
2022-10-01T08:10:18.977Z,100.00
2022-10-01T08:12:45.946Z,100.00
2022-10-01T08:15:14.698Z,100.00
2022-10-01T08:17:41.839Z,100.00
2022-10-01T08:20:11.181Z,100.00
2022-10-01T08:22:41.823Z,100.00
2022-10-01T08:25:09.073Z,100.00
2022-10-01T08:27:36.053Z,100.00
2022-10-01T08:30:02.974Z,100.00
2022-10-01T08:32:31.163Z,100.00
2022-10-01T08:34:59.120Z,100.00
2022-10-01T08:37:27.181Z,100.00
2022-10-01T08:39:54.767Z,100.00
2022-10-01T08:42:34.914Z,100.00
2022-10-01T08:45:06.061Z,100.00
2022-10-01T08:47:36.138Z,100.00
2022-10-01T08:50:12.505Z,100.00
2022-10-01T08:52:50.240Z,100.00
2022-10-01T08:55:21.077Z,100.00
2022-10-01T08:57:59.670Z,100.00
2022-10-01T09:00:27.514Z,100.00
2022-10-01T09:02:54.241Z,100.00
2022-10-01T09:05:42.942Z,100.00
2022-10-01T09:08:43.879Z,99.64
2022-10-01T09:11:29.489Z,100.00
2022-10-01T09:14:24.936Z,95.95
2022-10-01T09:16:59.912Z,97.22
2022-10-01T09:19:57.709Z,97.06
2022-10-01T09:22:32.115Z,95.14
2022-10-01T09:25:10.795Z,97.87
2022-10-01T09:27:40.359Z,99.72
2022-10-01T09:30:23.804Z,94.06
2022-10-01T09:33:02.928Z,95.08
2022-10-01T09:35:41.779Z,93.52
2022-10-01T09:38:13.930Z,91.92
2022-10-01T09:40:46.752Z,93.33
2022-10-01T09:43:14.165Z,91.35
2022-10-01T09:45:41.120Z,92.67
2022-10-01T09:48:18.589Z,91.35
2022-10-01T09:50:55.343Z,91.74
2022-10-01T09:53:26.529Z,91.52
2022-10-01T09:55:56.565Z,91.43
2022-10-01T09:58:24.957Z,90.80
2022-10-01T10:00:53.612Z,91.67
2022-10-01T10:03:30.711Z,91.17
2022-10-01T10:05:59.869Z,90.55
2022-10-01T10:08:30.666Z,92.43
2022-10-01T10:11:06.639Z,95.72
2022-10-01T10:13:35.377Z,95.62
2022-10-01T10:16:27.822Z,95.47
2022-10-01T10:18:58.754Z,94.59
2022-10-01T10:21:27.968Z,96.95
2022-10-01T10:23:57.238Z,100.00
2022-10-01T10:26:34.562Z,99.73
2022-10-01T10:29:03.581Z,100.00
2022-10-01T10:31:38.507Z,100.00
2022-10-01T10:34:16.620Z,100.00
2022-10-01T10:36:44.456Z,100.00
2022-10-01T10:39:23.809Z,100.00
2022-10-01T10:41:52.061Z,100.00
2022-10-01T10:44:21.427Z,100.00
2022-10-01T10:46:49.195Z,100.00
2022-10-01T10:49:23.883Z,100.00
2022-10-01T10:51:55.490Z,100.00
2022-10-01T10:54:25.344Z,100.00
2022-10-01T10:57:03.507Z,100.00
2022-10-01T10:59:32.185Z,100.00
2022-10-01T11:02:00.718Z,100.00
2022-10-01T11:04:32.854Z,100.00
2022-10-01T11:07:03.052Z,100.00
2022-10-01T11:09:55.539Z,100.00
2022-10-01T11:12:38.462Z,100.00
2022-10-01T11:15:15.222Z,100.00
2022-10-01T11:18:10.722Z,100.00
2022-10-01T11:21:00.203Z,100.00
2022-10-01T11:23:37.629Z,100.00
2022-10-01T11:26:31.074Z,100.00
2022-10-01T11:29:20.728Z,100.00
2022-10-01T11:31:55.033Z,100.00
2022-10-01T11:34:41.966Z,100.00
2022-10-01T11:37:28.488Z,100.00
2022-10-01T11:39:56.629Z,100.00
2022-10-01T11:42:31.772Z,100.00
2022-10-01T11:45:07.262Z,100.00
2022-10-01T11:47:38.089Z,100.00
2022-10-01T11:50:20.753Z,100.00
2022-10-01T11:53:00.450Z,100.00
2022-10-01T11:56:00.100Z,100.00
2022-10-01T11:58:55.612Z,100.00
2022-10-01T12:01:50.538Z,100.00
2022-10-01T12:04:25.580Z,100.00
2022-10-01T12:06:58.066Z,100.00
2022-10-01T12:09:31.419Z,100.00
2022-10-01T12:12:06.810Z,100.00
2022-10-01T12:14:42.652Z,100.00
2022-10-01T12:17:15.618Z,100.00
2022-10-01T12:19:47.007Z,100.00
2022-10-01T12:22:27.274Z,100.00
2022-10-01T12:24:54.321Z,100.00
2022-10-01T12:27:33.433Z,100.00
2022-10-01T12:30:22.233Z,100.00
2022-10-01T12:33:10.730Z,100.00
2022-10-01T12:35:53.087Z,100.00
2022-10-01T12:38:45.505Z,100.00
2022-10-01T12:41:38.759Z,100.00
2022-10-01T12:44:52.519Z,100.00
2022-10-01T12:47:35.200Z,100.00
2022-10-01T12:50:17.106Z,100.00
2022-10-01T12:53:14.527Z,100.00
2022-10-01T12:55:47.591Z,100.00
2022-10-01T12:58:44.880Z,100.00
2022-10-01T13:01:26.565Z,100.00
2022-10-01T13:04:31.264Z,100.00
2022-10-01T13:07:09.059Z,100.00
2022-10-01T13:09:52.288Z,100.00
2022-10-01T13:12:57.983Z,100.00
2022-10-01T13:15:34.538Z,100.00
2022-10-01T13:18:21.350Z,100.00
2022-10-01T13:21:08.559Z,100.00
2022-10-01T13:23:41.631Z,100.00
2022-10-01T13:26:17.458Z,100.00
2022-10-01T13:28:52.808Z,100.00
2022-10-01T13:31:19.563Z,100.00
2022-10-01T13:33:57.110Z,100.00
2022-10-01T13:36:35.622Z,100.00
2022-10-01T13:39:03.148Z,100.00
2022-10-01T13:41:34.542Z,100.00
2022-10-01T13:44:21.306Z,100.00
2022-10-01T13:46:53.704Z,100.00
2022-10-01T13:49:30.100Z,100.00
2022-10-01T13:51:57.675Z,100.00
2022-10-01T13:55:00.946Z,100.00
2022-10-01T13:57:34.316Z,100.00
2022-10-01T14:00:12.590Z,100.00
2022-10-01T14:02:42.266Z,100.00
2022-10-01T14:05:18.126Z,100.00
2022-10-01T14:07:46.547Z,100.00
2022-10-01T14:10:15.002Z,100.00
2022-10-01T14:13:02.282Z,100.00
2022-10-01T14:15:58.382Z,100.00
2022-10-01T14:18:39.638Z,100.00
2022-10-01T14:21:29.427Z,100.00
2022-10-01T14:24:25.476Z,100.00
2022-10-01T14:27:11.578Z,100.00
2022-10-01T14:30:03.495Z,100.00
2022-10-01T14:32:54.508Z,100.00
2022-10-01T14:35:52.115Z,100.00
2022-10-01T14:38:19.978Z,100.00
2022-10-01T14:40:48.596Z,100.00
2022-10-01T14:43:24.030Z,100.00
2022-10-01T14:45:59.111Z,100.00
2022-10-01T14:48:27.588Z,100.00
2022-10-01T14:50:56.611Z,100.00
2022-10-01T14:53:26.165Z,100.00
2022-10-01T14:55:55.446Z,100.00
2022-10-01T14:58:32.104Z,100.00
2022-10-01T15:00:59.354Z,100.00
2022-10-01T15:03:26.055Z,100.00
2022-10-01T15:06:03.807Z,100.00
2022-10-01T15:08:42.184Z,100.00
2022-10-01T15:11:14.002Z,100.00
2022-10-01T15:13:44.247Z,100.00
2022-10-01T15:16:13.013Z,100.00
2022-10-01T15:18:43.025Z,100.00
2022-10-01T15:21:19.187Z,100.00
2022-10-01T15:23:46.671Z,100.00
2022-10-01T15:26:18.029Z,100.00
2022-10-01T15:28:44.683Z,100.00
2022-10-01T15:31:11.488Z,100.00
2022-10-01T15:33:43.124Z,100.00
2022-10-01T15:36:15.750Z,100.00
2022-10-01T15:38:44.483Z,100.00
2022-10-01T15:41:31.558Z,100.00
2022-10-01T15:44:03.893Z,100.00
2022-10-01T15:46:33.169Z,100.00
2022-10-01T15:49:17.295Z,100.00
2022-10-01T15:52:18.063Z,100.00
2022-10-01T15:54:45.863Z,100.00
2022-10-01T15:57:22.055Z,100.00
2022-10-01T15:59:50.994Z,100.00
2022-10-01T16:02:24.422Z,100.00
2022-10-01T16:04:56.658Z,100.00
2022-10-01T16:07:29.051Z,100.00
2022-10-01T16:10:00.735Z,100.00
2022-10-01T16:12:28.126Z,100.00
2022-10-01T16:15:03.443Z,100.00
2022-10-01T16:17:33.026Z,100.00
2022-10-01T16:20:14.954Z,100.00
2022-10-01T16:22:43.170Z,100.00
2022-10-01T16:25:23.742Z,100.00
2022-10-01T16:27:55.636Z,100.00
2022-10-01T16:30:27.434Z,100.00
2022-10-01T16:32:54.859Z,100.00
2022-10-01T16:35:23.984Z,100.00
2022-10-01T16:37:52.947Z,100.00
2022-10-01T16:40:24.491Z,100.00
2022-10-01T16:42:51.500Z,100.00
2022-10-01T16:45:20.579Z,100.00
2022-10-01T16:47:47.282Z,100.00
2022-10-01T16:50:17.008Z,100.00
2022-10-01T16:52:43.762Z,100.00
2022-10-01T16:55:20.368Z,100.00
2022-10-01T16:57:46.950Z,100.00
2022-10-01T17:00:15.515Z,100.00
2022-10-01T17:02:42.627Z,100.00
2022-10-01T17:05:32.058Z,100.00
2022-10-01T17:08:03.450Z,100.00
2022-10-01T17:10:32.234Z,100.00
2022-10-01T17:12:59.699Z,100.00
2022-10-01T17:15:27.398Z,100.00
2022-10-01T17:17:55.001Z,100.00
2022-10-01T17:20:22.168Z,100.00
2022-10-01T17:22:49.546Z,100.00
2022-10-01T17:25:19.626Z,100.00
2022-10-01T17:27:46.964Z,100.00
2022-10-01T17:30:14.502Z,100.00
2022-10-01T17:32:42.912Z,100.00
2022-10-01T17:35:14.200Z,100.00
2022-10-01T17:37:41.285Z,100.00
2022-10-01T17:40:09.277Z,100.00
2022-10-01T17:42:36.424Z,100.00
2022-10-01T17:45:05.966Z,100.00
2022-10-01T17:47:33.539Z,100.00
2022-10-01T17:50:00.578Z,100.00
2022-10-01T17:52:29.151Z,100.00
2022-10-01T17:54:55.959Z,100.00
2022-10-01T17:57:22.619Z,100.00
2022-10-01T17:59:52.331Z,100.00
2022-10-01T18:02:40.476Z,100.00
2022-10-01T18:05:09.381Z,100.00
2022-10-01T18:07:37.955Z,100.00
2022-10-01T18:10:06.703Z,100.00
2022-10-01T18:12:33.855Z,100.00
2022-10-01T18:15:01.212Z,100.00
2022-10-01T18:17:28.115Z,100.00
2022-10-01T18:19:55.430Z,100.00
2022-10-01T18:22:23.174Z,100.00
2022-10-01T18:24:53.230Z,100.00
2022-10-01T18:27:21.005Z,100.00
2022-10-01T18:29:47.608Z,100.00
2022-10-01T18:32:21.877Z,100.00
2022-10-01T18:35:07.600Z,100.00
2022-10-01T18:37:49.505Z,100.00
2022-10-01T18:40:32.999Z,100.00
2022-10-01T18:43:14.649Z,100.00
2022-10-01T18:46:15.527Z,100.00
2022-10-01T18:49:06.959Z,100.00
2022-10-01T18:51:56.728Z,100.00
2022-10-01T18:54:55.899Z,100.00
2022-10-01T18:57:30.253Z,100.00
2022-10-01T19:00:23.538Z,100.00
2022-10-01T19:03:09.003Z,100.00
2022-10-01T19:05:35.957Z,100.00
2022-10-01T19:08:09.255Z,100.00
2022-10-01T19:10:41.904Z,100.00
2022-10-01T19:13:20.773Z,100.00
2022-10-01T19:16:18.773Z,100.00
2022-10-01T19:18:56.968Z,100.00
2022-10-01T19:21:51.536Z,100.00
2022-10-01T19:24:22.058Z,100.00
2022-10-01T19:27:24.853Z,100.00
2022-10-01T19:30:01.139Z,100.00
2022-10-01T19:32:49.613Z,100.00
2022-10-01T19:35:22.599Z,100.00
2022-10-01T19:37:52.865Z,100.00
2022-10-01T19:41:00.112Z,100.00
2022-10-01T19:43:33.555Z,100.00
2022-10-01T19:46:10.644Z,100.00
2022-10-01T19:48:52.537Z,100.00
2022-10-01T19:51:22.610Z,100.00
2022-10-01T19:53:52.724Z,100.00
2022-10-01T19:56:24.522Z,100.00
2022-10-01T19:58:52.291Z,100.00
2022-10-01T20:01:21.406Z,100.00
2022-10-01T20:03:59.531Z,100.00
2022-10-01T20:06:32.891Z,100.00
2022-10-01T20:09:16.302Z,100.00
2022-10-01T20:11:57.295Z,100.00
2022-10-01T20:15:07.836Z,100.00
2022-10-01T20:17:55.673Z,100.00
2022-10-01T20:20:29.756Z,100.00
2022-10-01T20:23:26.512Z,100.00
2022-10-01T20:25:59.008Z,100.00
2022-10-01T20:28:52.322Z,100.00
2022-10-01T20:31:28.375Z,100.00
2022-10-01T20:34:01.978Z,100.00
2022-10-01T20:36:34.756Z,100.00
2022-10-01T20:39:13.883Z,100.00
2022-10-01T20:41:47.205Z,100.00
2022-10-01T20:44:36.126Z,100.00
2022-10-01T20:47:36.666Z,100.00
2022-10-01T20:50:12.846Z,100.00
2022-10-01T20:53:04.140Z,100.00
2022-10-01T20:55:38.961Z,100.00
2022-10-01T20:58:11.441Z,100.00
2022-10-01T21:00:39.123Z,100.00
2022-10-01T21:03:21.443Z,100.00
2022-10-01T21:06:01.535Z,100.00
2022-10-01T21:08:37.389Z,100.00
2022-10-01T21:11:12.055Z,100.00
2022-10-01T21:13:56.888Z,100.00
2022-10-01T21:16:42.921Z,100.00
2022-10-01T21:19:34.948Z,100.00
2022-10-01T21:22:26.250Z,100.00
2022-10-01T21:25:02.136Z,100.00
2022-10-01T21:27:47.544Z,100.00
2022-10-01T21:30:16.846Z,100.00
2022-10-01T21:33:02.663Z,100.00
2022-10-01T21:35:50.789Z,100.00
2022-10-01T21:38:30.890Z,100.00
2022-10-01T21:41:13.735Z,100.00
2022-10-01T21:43:59.268Z,100.00
2022-10-01T21:46:37.723Z,100.00
2022-10-01T21:49:17.529Z,100.00
2022-10-01T21:52:18.389Z,100.00
2022-10-01T21:54:57.416Z,100.00
2022-10-01T21:57:27.971Z,100.00
2022-10-01T22:00:19.202Z,100.00
2022-10-01T22:03:05.087Z,100.00
2022-10-01T22:05:54.747Z,100.00
2022-10-01T22:08:41.686Z,100.00
2022-10-01T22:11:12.655Z,100.00
2022-10-01T22:13:54.520Z,100.00
2022-10-01T22:16:22.164Z,100.00
2022-10-01T22:19:04.158Z,100.00
2022-10-01T22:21:45.562Z,100.00
2022-10-01T22:24:21.293Z,100.00
2022-10-01T22:26:53.853Z,100.00
2022-10-01T22:29:24.558Z,100.00
2022-10-01T22:31:54.593Z,100.00
2022-10-01T22:34:28.168Z,100.00
2022-10-01T22:37:05.302Z,100.00
2022-10-01T22:39:35.776Z,100.00
2022-10-01T22:42:11.158Z,100.00
2022-10-01T22:44:37.780Z,100.00
2022-10-01T22:47:26.814Z,100.00
2022-10-01T22:50:08.875Z,100.00
2022-10-01T22:52:54.027Z,100.00
2022-10-01T22:55:36.278Z,100.00
2022-10-01T22:58:18.171Z,100.00
2022-10-01T23:00:53.652Z,100.00
2022-10-01T23:03:39.612Z,100.00
2022-10-01T23:06:19.579Z,100.00
2022-10-01T23:09:04.079Z,100.00
2022-10-01T23:11:45.856Z,100.00
2022-10-01T23:14:18.894Z,100.00
2022-10-01T23:17:15.573Z,100.00
2022-10-01T23:19:57.945Z,100.00
2022-10-01T23:22:46.593Z,100.00
2022-10-01T23:25:26.686Z,100.00
2022-10-01T23:28:23.507Z,100.00
2022-10-01T23:31:15.921Z,100.00
2022-10-01T23:33:51.135Z,100.00
2022-10-01T23:36:50.315Z,100.00
2022-10-01T23:39:45.699Z,100.00
2022-10-01T23:42:35.367Z,100.00
2022-10-01T23:45:13.860Z,100.00
2022-10-01T23:47:56.926Z,100.00
2022-10-01T23:50:31.707Z,100.00
2022-10-01T23:53:07.965Z,100.00
2022-10-01T23:56:08.724Z,100.00
2022-10-01T23:58:42.338Z,100.00
